Time;durP1;ratioP1;P1;durP2;ratioP2;P2;SDS_P1;SDS_P2;PMS_P1;PMS_P2;Temp;Humidity;BMP_temperature;BMP_pressure;BME280_temperature;BME280_humidity;BME280_pressure;Samples;Min_cycle;Max_cycle;Signal;HPM_P1;HPM_P2
2023/11/20 00:01:26;;;;;;;49.05;27.42;;;102.90;2227.20;;;;;;6249942;23;20071;-65
2023/11/20 00:03:52;;;;;;;49.72;26.38;;;102.90;2227.20;;;;;;6249979;23;20000;-64
2023/11/20 00:06:18;;;;;;;47.03;25.88;;;103.00;2227.20;;;;;;6249910;23;20413;-64
2023/11/20 00:08:44;;;;;;;43.67;23.80;;;102.90;2227.20;;;;;;6249812;23;20003;-65
2023/11/20 00:11:13;;;;;;;43.50;22.70;;;102.90;2227.20;;;;;;6250109;23;19992;-64
2023/11/20 00:13:38;;;;;;;41.00;22.00;;;102.90;2227.20;;;;;;6250508;23;20424;-64
2023/11/20 00:19:27;;;;;;;47.55;22.13;;;102.90;2227.20;;;;;;6249220;23;20079;-64
2023/11/20 00:21:53;;;;;;;49.88;23.83;;;102.90;2227.20;;;;;;6250294;23;19999;-64
2023/11/20 00:24:19;;;;;;;48.72;23.58;;;102.90;2227.20;;;;;;6249578;23;20000;-65
2023/11/20 00:26:45;;;;;;;43.88;23.73;;;102.80;2227.20;;;;;;6248924;23;20006;-65
2023/11/20 00:29:11;;;;;;;45.38;24.20;;;102.80;2227.20;;;;;;6249461;23;20082;-64
2023/11/20 00:35:32;;;;;;;47.97;25.13;;;102.80;2227.20;;;;;;6126577;23;20044;-64
2023/11/20 00:37:58;;;;;;;45.22;24.20;;;102.70;2227.20;;;;;;6127863;23;20471;-65
2023/11/20 00:40:24;;;;;;;42.47;25.73;;;102.70;2227.20;;;;;;6127359;23;20109;-65
2023/11/20 00:42:53;;;;;;;40.72;22.52;;;102.70;2227.20;;;;;;6126707;23;19998;-63
2023/11/20 00:45:19;;;;;;;46.28;24.80;;;102.70;2227.20;;;;;;6127170;23;20423;-65
2023/11/20 00:47:45;;;;;;;47.85;26.50;;;102.70;2227.20;;;;;;6127091;23;20006;-64
2023/11/20 00:50:11;;;;;;;53.50;29.08;;;102.70;2227.20;;;;;;6128056;23;20005;-63
2023/11/20 00:52:37;;;;;;;53.65;30.67;;;102.70;2227.20;;;;;;6127236;23;20002;-64
2023/11/20 00:55:10;;;;;;;44.90;24.77;;;102.70;2227.20;;;;;;6127055;23;20415;-65
2023/11/20 00:57:37;;;;;;;63.30;33.47;;;102.70;2227.20;;;;;;6126587;23;20455;-65
2023/11/20 01:00:08;;;;;;;103.80;53.38;;;102.70;2227.20;;;;;;6127652;23;20484;-64
2023/11/20 01:02:35;;;;;;;71.28;38.45;;;102.50;2227.20;;;;;;6127085;23;20423;-65
2023/11/20 01:05:01;;;;;;;65.50;34.22;;;102.40;2227.20;;;;;;6127229;23;20459;-64
2023/11/20 01:07:27;;;;;;;61.67;32.65;;;102.40;2227.20;;;;;;6127043;23;20466;-65
2023/11/20 01:09:53;;;;;;;58.22;30.17;;;102.40;2227.20;;;;;;6205712;23;20414;-65
2023/11/20 01:12:19;;;;;;;54.63;27.23;;;77.70;2227.20;;;;;;6218688;23;20124;-64
2023/11/20 01:14:46;;;;;;;54.78;27.70;;;77.70;2227.20;;;;;;6218714;23;19993;-65
2023/11/20 01:17:12;;;;;;;52.28;26.60;;;77.70;2227.20;;;;;;6218188;23;20043;-64
2023/11/20 01:19:38;;;;;;;49.28;24.80;;;77.70;2227.20;;;;;;6219270;23;20399;-64
2023/11/20 01:22:04;;;;;;;52.58;27.00;;;77.70;2227.20;;;;;;6218450;23;20051;-64
2023/11/20 01:24:30;;;;;;;58.55;29.23;;;77.70;2227.20;;;;;;6218143;23;20012;-64
2023/11/20 01:26:56;;;;;;;49.00;23.98;;;102.40;2227.20;;;;;;6218161;23;20000;-65
2023/11/20 01:29:23;;;;;;;52.95;28.15;;;102.40;2227.20;;;;;;6218517;23;19996;-65
2023/11/20 01:35:10;;;;;;;48.05;26.30;;;102.50;2227.20;;;;;;6235581;23;20031;-61
2023/11/20 01:37:36;;;;;;;54.60;27.58;;;102.60;2227.20;;;;;;6248305;23;20425;-63
2023/11/20 01:40:04;;;;;;;65.05;30.67;;;102.60;2227.20;;;;;;6248728;23;20112;-64
2023/11/20 01:42:30;;;;;;;63.03;31.75;;;102.60;2227.20;;;;;;6221161;23;20468;-64
2023/11/20 01:44:57;;;;;;;54.70;27.83;;;102.60;2227.20;;;;;;6220913;23;20417;-65
2023/11/20 01:47:23;;;;;;;66.47;34.63;;;102.60;2227.20;;;;;;6248069;23;20492;-68
2023/11/20 01:49:49;;;;;;;62.95;34.50;;;102.60;2227.20;;;;;;6248216;23;20394;-65
2023/11/20 01:52:15;;;;;;;49.15;26.17;;;102.50;2227.20;;;;;;6248359;23;20424;-63
2023/11/20 01:54:42;;;;;;;45.95;25.88;;;102.60;2227.20;;;;;;6248065;23;20420;-64
2023/11/20 01:57:12;;;;;;;64.13;31.25;;;102.50;2227.20;;;;;;6247374;23;20409;-62
2023/11/20 01:59:39;;;;;;;50.45;28.83;;;102.50;2227.20;;;;;;6247837;23;20413;-64
2023/11/20 02:05:26;;;;;;;51.75;30.70;;;102.40;2227.20;;;;;;6247642;23;20438;-64
2023/11/20 02:07:52;;;;;;;43.20;24.08;;;102.40;2227.20;;;;;;6248223;23;20468;-65
2023/11/20 02:10:18;;;;;;;46.88;27.38;;;102.40;2227.20;;;;;;6247843;23;19996;-67
2023/11/20 02:12:44;;;;;;;38.22;21.45;;;102.40;2227.20;;;;;;6247965;23;20007;-64
2023/11/20 02:15:11;;;;;;;38.65;21.92;;;102.40;2227.20;;;;;;6247822;23;20026;-64
2023/11/20 02:17:37;;;;;;;37.00;21.33;;;102.50;2227.20;;;;;;6248142;23;20428;-64
2023/11/20 02:20:03;;;;;;;33.90;19.65;;;102.50;2227.20;;;;;;6247772;23;20409;-65
2023/11/20 02:22:29;;;;;;;35.58;20.63;;;102.50;2227.20;;;;;;6248111;23;20464;-65
2023/11/20 02:24:58;;;;;;;36.28;20.08;;;102.60;2227.20;;;;;;6247879;23;20001;-64
2023/11/20 02:28:19;;;;;;;42.03;25.08;;;102.70;2227.20;;;;;;6248235;23;20483;-62
2023/11/20 02:30:47;;;;;;;59.47;35.70;;;102.60;2227.20;;;;;;6096809;23;20501;-66
2023/11/20 02:33:13;;;;;;;57.88;32.67;;;102.60;2227.20;;;;;;6097383;23;20436;-68
2023/11/20 02:35:39;;;;;;;81.18;46.08;;;102.50;2227.20;;;;;;6097262;23;20058;-71
2023/11/20 02:38:06;;;;;;;61.60;34.97;;;102.40;2227.20;;;;;;6097206;23;20442;-64
2023/11/20 02:40:32;;;;;;;77.38;46.78;;;102.50;2227.20;;;;;;6097343;23;20526;-64
2023/11/20 02:42:58;;;;;;;57.80;34.65;;;102.50;2227.20;;;;;;6097498;23;19994;-65
2023/11/20 02:45:25;;;;;;;48.45;27.27;;;102.50;2227.20;;;;;;6098284;23;20396;-65
2023/11/20 02:51:12;;;;;;;46.00;23.98;;;102.50;2227.20;;;;;;6068620;23;20528;-64
2023/11/20 02:53:38;;;;;;;49.92;24.08;;;102.50;2227.20;;;;;;6068415;23;20003;-64
2023/11/20 02:56:05;;;;;;;44.22;23.13;;;102.50;2227.20;;;;;;6068626;23;20443;-64
2023/11/20 02:58:31;;;;;;;47.50;23.63;;;102.60;2227.20;;;;;;6068970;23;20448;-64
2023/11/20 03:00:57;;;;;;;45.65;24.25;;;102.60;2227.20;;;;;;6101367;23;20562;-65
2023/11/20 03:03:23;;;;;;;41.03;22.33;;;102.60;2227.20;;;;;;6186684;23;20414;-65
2023/11/20 03:05:49;;;;;;;49.40;25.20;;;102.60;2227.20;;;;;;6186483;23;20469;-62
2023/11/20 03:08:17;;;;;;;40.42;22.83;;;102.70;2227.20;;;;;;6187099;23;19997;-65
2023/11/20 03:10:43;;;;;;;55.28;30.92;;;102.70;2227.20;;;;;;6187698;23;20457;-64
2023/11/20 03:13:10;;;;;;;48.70;26.30;;;102.60;2227.20;;;;;;6187813;23;20407;-65
2023/11/20 03:15:37;;;;;;;48.63;26.70;;;102.60;2227.20;;;;;;6188033;23;20429;-65
2023/11/20 03:21:27;;;;;;;49.88;25.92;;;102.60;2227.20;;;;;;6190035;23;20039;-65
2023/11/20 03:23:57;;;;;;;41.90;23.33;;;102.70;2227.20;;;;;;6190421;23;20387;-65
2023/11/20 03:26:23;;;;;;;45.50;23.60;;;102.70;2227.20;;;;;;6189775;23;20486;-64
2023/11/20 03:28:50;;;;;;;39.10;21.63;;;102.70;2227.20;;;;;;6189264;23;20034;-65
2023/11/20 03:31:16;;;;;;;36.58;21.38;;;102.70;2227.20;;;;;;6189737;23;20466;-63
2023/11/20 03:33:45;;;;;;;35.03;20.48;;;102.50;2227.20;;;;;;6190218;23;20314;-65
2023/11/20 03:36:12;;;;;;;36.42;20.58;;;102.50;2227.20;;;;;;6247478;23;20428;-65
2023/11/20 03:38:38;;;;;;;42.95;21.67;;;102.50;2227.20;;;;;;6250567;23;20016;-65
2023/11/20 03:41:05;;;;;;;39.50;21.42;;;102.40;2227.20;;;;;;6250129;23;20000;-64
2023/11/20 03:43:31;;;;;;;30.98;18.45;;;102.70;2227.20;;;;;;6249563;23;20489;-64
2023/11/20 03:45:57;;;;;;;34.00;19.42;;;102.80;2227.20;;;;;;6250262;23;20000;-66
2023/11/20 03:48:26;;;;;;;35.38;19.50;;;102.70;2227.20;;;;;;6250799;23;20398;-64
2023/11/20 03:50:52;;;;;;;31.08;18.83;;;102.60;2227.20;;;;;;6250417;23;20421;-64
2023/11/20 03:53:18;;;;;;;32.10;19.10;;;102.60;2227.20;;;;;;6250711;23;20309;-64
2023/11/20 03:55:44;;;;;;;30.20;18.52;;;102.60;2227.20;;;;;;6250077;23;20417;-66
2023/11/20 03:58:10;;;;;;;29.55;17.95;;;102.60;2227.20;;;;;;6250512;23;20428;-64
2023/11/20 04:00:36;;;;;;;35.28;20.27;;;102.70;2227.20;;;;;;6249561;23;19997;-65
2023/11/20 04:06:24;;;;;;;37.70;22.80;;;103.00;2227.20;;;;;;6250090;23;20007;-65
2023/11/20 04:08:50;;;;;;;24.92;13.75;;;103.20;2227.20;;;;;;6250183;23;20000;-65
2023/11/20 04:11:17;;;;;;;21.23;12.43;;;128.00;2252.80;;;;;;6249304;23;20003;-64
2023/11/20 04:13:43;;;;;;;20.95;11.63;;;128.20;2252.80;;;;;;6223466;23;20409;-64
2023/11/20 04:16:10;;;;;;;19.15;11.98;;;128.50;2252.80;;;;;;6249366;23;20008;-64
2023/11/20 04:18:36;;;;;;;19.05;11.52;;;128.70;2252.80;;;;;;6250070;23;19992;-65
2023/11/20 04:21:03;;;;;;;19.15;11.52;;;128.80;2252.80;;;;;;6249800;23;20305;-65
2023/11/20 04:23:29;;;;;;;20.95;11.23;;;153.60;2252.80;;;;;;6249581;23;20293;-65
2023/11/20 04:25:59;;;;;;;22.02;11.68;;;153.60;2252.80;;;;;;6249571;23;20004;-65
2023/11/20 04:28:27;;;;;;;17.75;11.32;;;153.70;2252.80;;;;;;6249420;23;20448;-64
2023/11/20 04:30:56;;;;;;;19.42;11.85;;;153.80;2227.20;;;;;;6249145;23;20479;-65
2023/11/20 04:36:44;;;;;;;22.05;12.07;;;154.00;2252.80;;;;;;6234452;23;20070;-64
2023/11/20 04:39:10;;;;;;;19.85;11.23;;;154.00;2252.80;;;;;;6249517;23;19996;-66
2023/11/20 04:41:39;;;;;;;20.88;11.05;;;154.00;2252.80;;;;;;6250698;23;20007;-66
2023/11/20 04:44:05;;;;;;;18.25;10.77;;;154.00;2252.80;;;;;;6249697;23;20409;-67
2023/11/20 04:46:34;;;;;;;20.80;12.85;;;154.10;2252.80;;;;;;6249411;23;20003;-65
2023/11/20 04:49:01;;;;;;;21.17;12.30;;;154.10;2252.80;;;;;;6248801;23;20428;-64
2023/11/20 04:51:27;;;;;;;22.40;13.00;;;154.20;2252.80;;;;;;6249223;23;20488;-64
2023/11/20 04:53:53;;;;;;;23.45;12.45;;;154.20;2252.80;;;;;;6248910;23;20405;-68
2023/11/20 04:56:19;;;;;;;23.85;13.35;;;154.20;2252.80;;;;;;6249011;23;20409;-65
2023/11/20 04:58:45;;;;;;;21.40;13.00;;;154.20;2252.80;;;;;;6249054;23;20455;-64
2023/11/20 05:01:13;;;;;;;21.35;12.98;;;154.20;2252.80;;;;;;6249427;23;20409;-65
2023/11/20 05:07:01;;;;;;;19.45;12.40;;;154.20;2252.80;;;;;;6248999;23;20035;-65
2023/11/20 05:09:27;;;;;;;21.60;12.55;;;154.20;2252.80;;;;;;6249646;23;20459;-65
2023/11/20 05:11:54;;;;;;;22.02;13.23;;;154.20;2252.80;;;;;;6249205;23;20000;-63
2023/11/20 05:14:22;;;;;;;22.48;13.30;;;154.30;2252.80;;;;;;6249880;23;20415;-65
2023/11/20 05:16:50;;;;;;;24.05;14.02;;;154.40;2252.80;;;;;;6249099;23;20425;-64
2023/11/20 05:19:16;;;;;;;23.88;14.63;;;154.40;2252.80;;;;;;6249294;23;20027;-65
2023/11/20 05:21:47;;;;;;;28.05;15.98;;;154.40;2252.80;;;;;;6249133;23;20007;-68
2023/11/20 05:24:14;;;;;;;29.63;16.67;;;154.40;2252.80;;;;;;6249684;23;20416;-65
2023/11/20 05:26:40;;;;;;;28.45;16.20;;;154.40;2252.80;;;;;;6249227;23;20417;-66
2023/11/20 05:29:07;;;;;;;22.05;12.60;;;154.40;2252.80;;;;;;6249022;23;20425;-64
2023/11/20 05:31:34;;;;;;;19.70;12.02;;;154.50;2252.80;;;;;;6249933;23;20027;-64
2023/11/20 05:37:23;;;;;;;20.60;11.77;;;154.50;2252.80;;;;;;6239196;23;20336;-65
2023/11/20 05:39:49;;;;;;;18.13;11.40;;;154.50;2252.80;;;;;;6249013;23;20475;-64
2023/11/20 05:42:15;;;;;;;20.20;11.60;;;179.20;2252.80;;;;;;6248365;23;20413;-65
2023/11/20 05:44:41;;;;;;;20.30;12.57;;;179.20;2252.80;;;;;;6248801;23;20422;-66
2023/11/20 05:47:07;;;;;;;21.45;12.77;;;179.30;2252.80;;;;;;6249426;23;19992;-65
2023/11/20 05:49:33;;;;;;;23.92;13.98;;;179.30;2252.80;;;;;;6249001;23;20095;-65
2023/11/20 05:51:59;;;;;;;22.13;13.23;;;179.30;2252.80;;;;;;6249381;23;20038;-66
2023/11/20 05:54:26;;;;;;;27.30;13.70;;;179.30;2252.80;;;;;;6248515;23;20468;-66
2023/11/20 05:56:52;;;;;;;23.95;13.57;;;179.30;2252.80;;;;;;6248143;23;20022;-66
2023/11/20 05:59:18;;;;;;;26.80;14.15;;;179.30;2252.80;;;;;;6248971;23;20421;-65
2023/11/20 06:01:44;;;;;;;26.60;14.25;;;179.30;2252.80;;;;;;6248234;23;20030;-67
2023/11/20 06:07:32;;;;;;;26.73;14.90;;;179.30;2252.80;;;;;;6248149;23;20507;-66
2023/11/20 06:09:58;;;;;;;27.35;16.85;;;179.30;2252.80;;;;;;6248421;23;20432;-67
2023/11/20 06:12:24;;;;;;;32.72;18.27;;;179.30;2252.80;;;;;;6249207;23;19992;-64
2023/11/20 06:14:52;;;;;;;40.95;20.10;;;179.30;2252.80;;;;;;6248306;23;20004;-65
2023/11/20 06:17:19;;;;;;;36.40;20.08;;;179.40;2252.80;;;;;;6248677;23;20055;-65
2023/11/20 06:19:45;;;;;;;32.00;18.88;;;179.40;2252.80;;;;;;6248726;23;20400;-64
2023/11/20 06:22:11;;;;;;;26.75;15.32;;;179.40;2252.80;;;;;;6248665;23;20000;-65
2023/11/20 06:24:37;;;;;;;28.80;16.02;;;179.40;2252.80;;;;;;6248379;23;20030;-65
2023/11/20 06:27:04;;;;;;;33.80;16.83;;;179.40;2252.80;;;;;;6248187;23;20007;-64
2023/11/20 06:29:30;;;;;;;28.88;16.38;;;179.40;2252.80;;;;;;6247999;23;20413;-65
2023/11/20 06:31:56;;;;;;;34.60;20.13;;;179.40;2252.80;;;;;;6249708;23;20286;-66
2023/11/20 06:37:57;;;;;;;38.30;22.05;;;179.40;2252.80;;;;;;6243213;23;20383;-64
2023/11/20 06:40:24;;;;;;;35.08;20.27;;;179.30;2252.80;;;;;;6248092;23;20008;-65
2023/11/20 06:42:51;;;;;;;41.85;20.90;;;179.40;2252.80;;;;;;6248694;23;20015;-65
2023/11/20 06:45:17;;;;;;;32.97;19.05;;;179.30;2252.80;;;;;;6249656;23;20475;-65
2023/11/20 06:47:43;;;;;;;37.85;21.23;;;179.30;2252.80;;;;;;6249678;23;20409;-65
2023/11/20 06:50:09;;;;;;;39.95;22.27;;;179.30;2252.80;;;;;;6249766;23;20007;-66
2023/11/20 06:52:35;;;;;;;29.85;17.45;;;179.40;2252.80;;;;;;6250134;23;20372;-66
2023/11/20 06:55:01;;;;;;;39.25;19.35;;;179.40;2252.80;;;;;;6249516;23;20039;-65
2023/11/20 06:57:27;;;;;;;67.35;37.05;;;179.40;2252.80;;;;;;6249531;23;20074;-65
2023/11/20 06:59:53;;;;;;;61.00;38.20;;;179.50;2252.80;;;;;;6250340;23;19999;-65
2023/11/20 07:02:21;;;;;;;35.67;22.75;;;179.60;2252.80;;;;;;6250120;23;20007;-65
2023/11/20 07:08:25;;;;;;;32.63;21.40;;;179.70;2252.80;;;;;;6250425;23;20068;-64
2023/11/20 07:10:51;;;;;;;45.20;26.17;;;179.80;2252.80;;;;;;6250438;23;20381;-63
2023/11/20 07:13:17;;;;;;;28.85;16.83;;;180.00;2252.80;;;;;;6224165;23;20413;-62
2023/11/20 07:15:43;;;;;;;28.17;17.60;;;180.00;2252.80;;;;;;6250125;23;20062;-64
2023/11/20 07:18:09;;;;;;;32.90;19.13;;;180.00;2252.80;;;;;;6249840;23;19996;-64
2023/11/20 07:20:36;;;;;;;34.78;19.08;;;180.10;2252.80;;;;;;6250458;23;20417;-65
2023/11/20 07:23:05;;;;;;;36.15;21.10;;;180.10;2252.80;;;;;;6250453;23;20395;-65
2023/11/20 07:25:33;;;;;;;30.58;17.52;;;204.90;2252.80;;;;;;6250193;23;20397;-64
2023/11/20 07:28:01;;;;;;;28.60;17.80;;;205.10;2252.80;;;;;;6249919;23;20003;-65
2023/11/20 07:30:29;;;;;;;30.40;16.75;;;230.60;2252.80;;;;;;6251135;23;20401;-65
2023/11/20 07:32:55;;;;;;;26.65;14.90;;;256.30;2252.80;;;;;;6223129;23;20075;-64
2023/11/20 07:35:21;;;;;;;25.70;14.93;;;231.30;2252.80;;;;;;6250172;23;20000;-64
2023/11/20 07:37:47;;;;;;;20.27;13.50;;;231.10;2252.80;;;;;;6250190;23;20310;-64
2023/11/20 07:40:15;;;;;;;22.65;14.65;;;231.10;2252.80;;;;;;6249273;23;20535;-64
2023/11/20 07:42:42;;;;;;;29.13;15.70;;;256.00;2252.80;;;;;;6249600;23;20394;-65
2023/11/20 07:45:08;;;;;;;37.35;21.77;;;;;;;;;;6249349;23;20479;-64
2023/11/20 07:47:35;;;;;;;54.72;34.75;;;;;;;;;;6216552;23;20294;-63
2023/11/20 07:50:01;;;;;;;59.80;35.15;;;;;;;;;;6247810;23;20039;-66
2023/11/20 07:52:26;;;;;;;50.05;33.78;;;231.20;2252.80;;;;;;6247973;23;20043;-65
2023/11/20 07:54:52;;;;;;;39.95;26.85;;;230.80;2252.80;;;;;;6246418;23;20008;-67
2023/11/20 07:57:21;;;;;;;33.70;21.55;;;230.70;2252.80;;;;;;6246520;23;20016;-65
2023/11/20 07:59:48;;;;;;;30.92;17.13;;;230.80;2252.80;;;;;;6220092;23;20328;-64
2023/11/20 08:02:13;;;;;;;36.60;16.65;;;230.70;2252.80;;;;;;6246933;23;20008;-65
2023/11/20 08:04:39;;;;;;;34.08;17.17;;;230.60;2252.80;;;;;;6246715;23;20417;-65
2023/11/20 08:07:05;;;;;;;37.58;18.35;;;230.70;2252.80;;;;;;6246607;23;20328;-65
2023/11/20 08:09:31;;;;;;;42.13;19.73;;;230.60;2252.80;;;;;;6246568;23;20000;-63
2023/11/20 08:11:56;;;;;;;41.80;19.95;;;230.70;2252.80;;;;;;6246035;23;20058;-65
2023/11/20 08:14:22;;;;;;;31.70;18.17;;;230.80;2252.80;;;;;;6247383;23;20007;-65
2023/11/20 08:16:48;;;;;;;34.50;19.98;;;230.70;2252.80;;;;;;6246887;23;20436;-62
2023/11/20 08:19:14;;;;;;;33.83;19.80;;;230.80;2252.80;;;;;;6246488;23;20016;-65
2023/11/20 08:21:41;;;;;;;39.40;21.55;;;231.20;2252.80;;;;;;6246351;23;20047;-65
2023/11/20 08:24:11;;;;;;;33.47;19.10;;;231.20;2252.80;;;;;;6246907;23;20004;-65
2023/11/20 08:26:37;;;;;;;44.83;24.52;;;231.10;2252.80;;;;;;6246806;23;20004;-64
2023/11/20 08:29:02;;;;;;;53.83;26.38;;;231.10;2252.80;;;;;;6246180;23;20779;-66
2023/11/20 08:31:28;;;;;;;54.17;27.38;;;256.80;2252.80;;;;;;6246741;23;20015;-65
2023/11/20 08:33:54;;;;;;;55.88;27.60;;;282.00;2278.40;;;;;;6246209;23;20000;-65
2023/11/20 08:36:19;;;;;;;57.47;28.90;;;307.50;2304.00;;;;;;6246520;23;20012;-67
2023/11/20 08:38:45;;;;;;;42.53;23.88;;;307.30;2304.00;;;;;;6246465;23;20019;-65
2023/11/20 08:41:13;;;;;;;59.63;36.95;;;;;;;;;;6246355;23;20427;-65
2023/11/20 08:43:39;;;;;;;47.05;29.45;;;333.70;2329.60;;;;;;6246665;23;20000;-65
2023/11/20 08:46:08;;;;;;;37.75;19.85;;;;;;;;;;6246747;23;20429;-65
2023/11/20 08:48:34;;;;;;;42.08;25.90;;;333.60;2329.60;;;;;;6246018;23;20000;-65
2023/11/20 08:51:00;;;;;;;37.78;20.90;;;333.60;2329.60;;;;;;6246076;23;20089;-64
2023/11/20 08:53:26;;;;;;;32.88;15.93;;;358.90;2329.60;;;;;;6245369;23;20000;-64
2023/11/20 08:55:52;;;;;;;28.98;14.38;;;358.60;2329.60;;;;;;6245855;23;20019;-64
2023/11/20 08:58:18;;;;;;;33.50;17.58;;;333.30;2329.60;;;;;;6246618;23;19996;-63
2023/11/20 09:00:44;;;;;;;28.08;14.48;;;333.20;2329.60;;;;;;6245783;23;20086;-65
2023/11/20 09:03:11;;;;;;;29.20;14.25;;;332.90;2329.60;;;;;;6245691;23;20054;-65
2023/11/20 09:05:40;;;;;;;25.27;13.95;;;308.10;2304.00;;;;;;6242280;23;20053;-65
2023/11/20 09:08:06;;;;;;;24.88;13.43;;;308.00;2304.00;;;;;;6245729;23;20035;-66
2023/11/20 09:10:32;;;;;;;32.63;16.80;;;307.80;2304.00;;;;;;6245981;23;19997;-66
2023/11/20 09:12:57;;;;;;;20.98;11.43;;;307.50;2304.00;;;;;;6244602;23;20007;-66
2023/11/20 09:15:26;;;;;;;17.38;10.73;;;307.50;2304.00;;;;;;6243933;23;20083;-65
2023/11/20 09:17:52;;;;;;;109.63;52.42;;;307.40;2304.00;;;;;;6244765;23;20364;-66
2023/11/20 09:20:21;;;;;;;39.47;22.98;;;307.40;2304.00;;;;;;6245061;23;20053;-65
2023/11/20 09:22:48;;;;;;;46.10;28.55;;;307.60;2304.00;;;;;;6246260;23;20004;-65
2023/11/20 09:25:14;;;;;;;20.13;11.63;;;307.80;2304.00;;;;;;6242331;23;20000;-66
2023/11/20 09:27:41;;;;;;;18.45;11.63;;;307.60;2304.00;;;;;;6244694;23;20008;-66
2023/11/20 09:30:09;;;;;;;17.48;11.18;;;307.50;2304.00;;;;;;6245912;23;20004;-64
2023/11/20 09:32:35;;;;;;;17.63;11.80;;;307.40;2304.00;;;;;;6244662;23;19996;-64
2023/11/20 09:35:01;;;;;;;18.58;12.55;;;307.40;2304.00;;;;;;6245010;23;20035;-64
2023/11/20 09:37:27;;;;;;;21.85;13.57;;;307.40;2304.00;;;;;;6244948;23;20020;-64
2023/11/20 09:39:53;;;;;;;23.77;13.20;;;307.80;2304.00;;;;;;6245777;23;20042;-65
2023/11/20 09:42:22;;;;;;;20.60;11.57;;;332.80;2329.60;;;;;;6245490;23;20424;-64
2023/11/20 09:44:49;;;;;;;26.42;13.82;;;308.00;2304.00;;;;;;6245380;23;19996;-66
2023/11/20 09:47:16;;;;;;;21.40;12.50;;;307.70;2304.00;;;;;;6246051;23;20004;-65
2023/11/20 09:49:44;;;;;;;22.73;12.85;;;307.60;2304.00;;;;;;6217079;23;20004;-66
2023/11/20 09:52:10;;;;;;;22.55;12.88;;;307.70;2304.00;;;;;;6246081;23;20003;-65
2023/11/20 09:54:38;;;;;;;186.73;97.28;;;307.70;2304.00;;;;;;6246164;23;20325;-65
2023/11/20 09:57:09;;;;;;;67.80;32.97;;;307.70;2304.00;;;;;;6245347;23;20073;-65
2023/11/20 09:59:38;;;;;;;65.72;32.95;;;307.70;2304.00;;;;;;6245792;23;20000;-64
2023/11/20 10:02:05;;;;;;;54.53;34.28;;;307.80;2304.00;;;;;;6245022;23;20324;-66
2023/11/20 10:04:34;;;;;;;35.42;20.50;;;308.00;2304.00;;;;;;6244784;23;20007;-65
2023/11/20 10:07:04;;;;;;;27.52;14.60;;;332.80;2329.60;;;;;;6245283;23;20295;-64
2023/11/20 10:09:33;;;;;;;20.65;12.85;;;332.90;2329.60;;;;;;6245988;23;20099;-64
2023/11/20 10:12:03;;;;;;;20.80;11.95;;;333.40;2329.60;;;;;;6245572;23;20006;-66
2023/11/20 10:14:30;;;;;;;14.90;9.55;;;358.40;2329.60;;;;;;6245027;23;20332;-64
2023/11/20 10:16:58;;;;;;;17.52;10.65;;;333.60;2329.60;;;;;;6244919;23;20441;-64
2023/11/20 10:19:23;;;;;;;16.33;9.88;;;333.30;2329.60;;;;;;6244903;23;20437;-64
2023/11/20 10:21:54;;;;;;;20.52;11.00;;;333.30;2329.60;;;;;;6244958;23;20007;-62
2023/11/20 10:24:19;;;;;;;23.88;13.35;;;333.60;2329.60;;;;;;6244724;23;20313;-65
2023/11/20 10:26:46;;;;;;;21.58;12.77;;;358.90;2329.60;;;;;;6245771;23;20000;-65
2023/11/20 10:29:11;;;;;;;23.50;13.13;;;358.80;2329.60;;;;;;6244896;23;20004;-67
2023/11/20 10:31:44;;;;;;;33.95;17.58;;;359.10;2329.60;;;;;;6245169;23;20043;-65
2023/11/20 10:34:11;;;;;;;23.02;12.73;;;384.20;2329.60;;;;;;6245127;23;19996;-67
2023/11/20 10:36:38;;;;;;;17.75;10.57;;;384.40;2329.60;;;;;;6245086;23;20012;-65
2023/11/20 10:39:05;;;;;;;21.15;12.43;;;384.20;2329.60;;;;;;6244889;23;20317;-65
2023/11/20 10:41:32;;;;;;;22.38;12.30;;;384.40;2329.60;;;;;;6244704;23;20000;-65
2023/11/20 10:43:59;;;;;;;17.45;10.07;;;384.00;2329.60;;;;;;6245010;23;19996;-66
2023/11/20 10:46:28;;;;;;;18.65;11.25;;;359.20;2329.60;;;;;;6245059;23;20333;-65
2023/11/20 10:48:55;;;;;;;25.98;13.35;;;384.10;2329.60;;;;;;6245092;23;20409;-65
2023/11/20 10:51:23;;;;;;;15.35;8.80;;;384.50;2329.60;;;;;;6245018;23;20079;-65
2023/11/20 10:54:14;;;;;;;22.48;11.38;;;384.50;2329.60;;;;;;6244359;23;20000;-64
2023/11/20 10:56:42;;;;;;;17.42;9.23;;;384.60;2329.60;;;;;;6093200;23;20025;-63
2023/11/20 10:59:10;;;;;;;12.70;7.55;;;384.50;2329.60;;;;;;6093653;23;20336;-64
2023/11/20 11:01:39;;;;;;;21.60;9.85;;;384.20;2329.60;;;;;;6092377;23;20006;-67
2023/11/20 11:04:05;;;;;;;15.65;9.13;;;384.70;2329.60;;;;;;6093802;23;20497;-65
2023/11/20 11:06:32;;;;;;;33.00;16.70;;;384.90;2329.60;;;;;;6093424;23;20041;-64
2023/11/20 11:09:01;;;;;;;32.17;17.50;;;384.50;2329.60;;;;;;6093426;23;20010;-65
2023/11/20 11:11:30;;;;;;;42.28;18.65;;;384.80;2329.60;;;;;;6093928;23;20018;-65
2023/11/20 11:13:55;;;;;;;27.17;13.90;;;409.60;2355.20;;;;;;6093692;23;20309;-66
2023/11/20 11:16:37;;;;;;;24.90;13.50;;;409.60;2355.20;;;;;;6092633;23;20089;-64
2023/11/20 11:19:07;;;;;;;23.25;13.15;;;409.90;2355.20;;;;;;6093657;23;20471;-65
2023/11/20 11:21:59;;;;;;;14.35;8.90;;;409.90;2355.20;;;;;;6094110;23;20010;-64
2023/11/20 11:24:31;;;;;;;13.10;8.15;;;384.60;2329.60;;;;;;6092274;23;20010;-65
2023/11/20 11:27:09;;;;;;;20.42;10.98;;;409.70;2355.20;;;;;;6093142;23;20006;-65
2023/11/20 11:29:38;;;;;;;16.33;10.20;;;410.20;2355.20;;;;;;6095133;23;20428;-65
2023/11/20 11:32:21;;;;;;;26.30;14.18;;;410.00;2355.20;;;;;;6095635;23;20007;-65
2023/11/20 11:34:53;;;;;;;24.48;13.85;;;409.80;2355.20;;;;;;6244474;23;20008;-64
2023/11/20 11:37:49;;;;;;;33.35;18.90;;;;;;;;;;6247021;23;20038;-65
2023/11/20 11:40:36;;;;;;;14.88;8.68;;;410.40;2355.20;;;;;;6094017;23;20022;-65
2023/11/20 11:43:18;;;;;;;15.25;9.15;;;410.00;2355.20;;;;;;6094739;23;20018;-65
2023/11/20 11:45:47;;;;;;;20.95;10.40;;;409.60;2355.20;;;;;;6094913;23;20382;-66
2023/11/20 11:48:13;;;;;;;21.45;11.98;;;384.90;2329.60;;;;;;6094756;23;20053;-64
2023/11/20 11:50:40;;;;;;;16.20;9.95;;;384.90;2329.60;;;;;;6095116;23;20710;-64
2023/11/20 11:53:10;;;;;;;13.73;7.53;;;384.90;2329.60;;;;;;6095301;23;20116;-64
2023/11/20 11:55:40;;;;;;;14.13;8.48;;;384.90;2329.60;;;;;;6094835;23;20017;-68
2023/11/20 11:58:13;;;;;;;14.60;8.75;;;384.80;2329.60;;;;;;6094983;23;20099;-65
2023/11/20 12:00:39;;;;;;;14.50;8.02;;;409.60;2355.20;;;;;;6093994;23;20351;-65
2023/11/20 12:03:08;;;;;;;16.23;9.05;;;384.90;2329.60;;;;;;6094592;23;20014;-67
2023/11/20 12:05:54;;;;;;;20.15;9.70;;;384.80;2329.60;;;;;;6094706;23;20011;-66
2023/11/20 12:08:24;;;;;;;12.55;6.93;;;384.40;2329.60;;;;;;6095044;23;20384;-65
2023/11/20 12:10:55;;;;;;;14.45;8.15;;;384.00;2329.60;;;;;;6094636;23;20030;-65
2023/11/20 12:13:26;;;;;;;14.15;7.70;;;384.10;2329.60;;;;;;6094695;23;20003;-65
2023/11/20 12:15:55;;;;;;;15.23;8.70;;;384.30;2329.60;;;;;;6120462;23;20409;-66
2023/11/20 12:18:29;;;;;;;14.80;8.23;;;384.30;2329.60;;;;;;6245552;23;20079;-65
2023/11/20 12:20:54;;;;;;;16.23;9.25;;;384.20;2329.60;;;;;;6246578;23;20075;-69
2023/11/20 12:23:51;;;;;;;21.17;9.85;;;384.20;2329.60;;;;;;6245232;23;20085;-65
2023/11/20 12:26:18;;;;;;;16.67;9.93;;;384.00;2329.60;;;;;;6246799;23;20007;-64
2023/11/20 12:28:43;;;;;;;17.25;9.45;;;384.10;2329.60;;;;;;6246447;23;19997;-67
2023/11/20 12:31:13;;;;;;;14.57;9.02;;;384.00;2329.60;;;;;;6246945;23;20000;-66
2023/11/20 12:33:42;;;;;;;12.43;7.60;;;384.20;2329.60;;;;;;6246096;23;20058;-66
2023/11/20 12:36:09;;;;;;;14.63;8.18;;;384.30;2329.60;;;;;;6246171;23;20016;-64
2023/11/20 12:38:37;;;;;;;13.73;7.53;;;384.50;2329.60;;;;;;6245834;23;20440;-64
2023/11/20 12:41:04;;;;;;;13.18;6.97;;;384.70;2329.60;;;;;;6245731;23;20453;-64
2023/11/20 12:43:33;;;;;;;13.65;8.70;;;384.90;2329.60;;;;;;6246236;23;20407;-66
2023/11/20 12:46:12;;;;;;;14.40;6.70;;;384.80;2329.60;;;;;;6246172;23;20000;-64
2023/11/20 12:48:40;;;;;;;20.75;10.15;;;384.80;2329.60;;;;;;6245437;23;20004;-65
2023/11/20 12:51:06;;;;;;;17.77;9.40;;;384.90;2329.60;;;;;;6245305;23;20007;-64